sensor_id;sensor_type;location;lat;lon;timestamp;temperature;humidity
5508;DHT22;2776;51.046;6.772;2023-06-26T00:01:04;22.60;99.90
5508;DHT22;2776;51.046;6.772;2023-06-26T00:03:31;22.50;99.90
5508;DHT22;2776;51.046;6.772;2023-06-26T00:05:58;22.40;99.90
5508;DHT22;2776;51.046;6.772;2023-06-26T00:08:26;22.40;99.90
5508;DHT22;2776;51.046;6.772;2023-06-26T00:10:53;22.30;99.90
5508;DHT22;2776;51.046;6.772;2023-06-26T00:13:20;22.30;99.90
5508;DHT22;2776;51.046;6.772;2023-06-26T00:15:49;22.30;99.90
5508;DHT22;2776;51.046;6.772;2023-06-26T00:18:16;22.20;99.90
5508;DHT22;2776;51.046;6.772;2023-06-26T00:20:42;22.20;99.90
5508;DHT22;2776;51.046;6.772;2023-06-26T00:23:10;22.20;99.90
5508;DHT22;2776;51.046;6.772;2023-06-26T00:25:38;22.20;99.90
5508;DHT22;2776;51.046;6.772;2023-06-26T00:28:05;22.10;99.90
5508;DHT22;2776;51.046;6.772;2023-06-26T00:30:32;22.10;99.90
5508;DHT22;2776;51.046;6.772;2023-06-26T00:33:00;22.00;99.90
5508;DHT22;2776;51.046;6.772;2023-06-26T00:35:27;22.00;99.90
5508;DHT22;2776;51.046;6.772;2023-06-26T00:37:54;22.00;99.90
5508;DHT22;2776;51.046;6.772;2023-06-26T00:40:20;22.00;99.90
5508;DHT22;2776;51.046;6.772;2023-06-26T00:42:47;22.00;99.90
5508;DHT22;2776;51.046;6.772;2023-06-26T00:45:14;21.90;99.90
5508;DHT22;2776;51.046;6.772;2023-06-26T00:47:41;21.90;99.90
5508;DHT22;2776;51.046;6.772;2023-06-26T00:50:09;21.90;99.90
5508;DHT22;2776;51.046;6.772;2023-06-26T00:52:36;21.80;99.90
5508;DHT22;2776;51.046;6.772;2023-06-26T00:55:04;21.80;99.90
5508;DHT22;2776;51.046;6.772;2023-06-26T00:57:31;21.70;99.90
5508;DHT22;2776;51.046;6.772;2023-06-26T00:59:58;21.80;99.90
5508;DHT22;2776;51.046;6.772;2023-06-26T01:02:25;21.80;99.90
5508;DHT22;2776;51.046;6.772;2023-06-26T01:04:59;21.80;99.90
5508;DHT22;2776;51.046;6.772;2023-06-26T01:07:30;21.80;99.90
5508;DHT22;2776;51.046;6.772;2023-06-26T01:10:02;21.80;99.90
5508;DHT22;2776;51.046;6.772;2023-06-26T01:12:29;21.80;99.90
5508;DHT22;2776;51.046;6.772;2023-06-26T01:14:57;21.70;99.90
5508;DHT22;2776;51.046;6.772;2023-06-26T01:17:24;21.70;99.90
5508;DHT22;2776;51.046;6.772;2023-06-26T01:19:52;21.60;99.90
5508;DHT22;2776;51.046;6.772;2023-06-26T01:22:25;21.60;99.90
5508;DHT22;2776;51.046;6.772;2023-06-26T01:25:02;21.50;99.90
5508;DHT22;2776;51.046;6.772;2023-06-26T01:27:32;21.40;99.90
5508;DHT22;2776;51.046;6.772;2023-06-26T01:30:01;21.40;99.90
5508;DHT22;2776;51.046;6.772;2023-06-26T01:32:29;21.30;99.90
5508;DHT22;2776;51.046;6.772;2023-06-26T01:34:57;21.30;99.90
5508;DHT22;2776;51.046;6.772;2023-06-26T01:37:24;21.20;99.90
5508;DHT22;2776;51.046;6.772;2023-06-26T01:39:50;21.20;99.90
5508;DHT22;2776;51.046;6.772;2023-06-26T01:42:17;21.20;99.90
5508;DHT22;2776;51.046;6.772;2023-06-26T01:44:46;21.20;99.90
5508;DHT22;2776;51.046;6.772;2023-06-26T01:47:16;21.20;99.90
5508;DHT22;2776;51.046;6.772;2023-06-26T01:49:49;21.10;99.90
5508;DHT22;2776;51.046;6.772;2023-06-26T01:52:21;21.10;99.90
5508;DHT22;2776;51.046;6.772;2023-06-26T01:54:57;21.10;99.90
5508;DHT22;2776;51.046;6.772;2023-06-26T01:57:26;21.10;99.90
5508;DHT22;2776;51.046;6.772;2023-06-26T01:59:55;21.10;99.90
5508;DHT22;2776;51.046;6.772;2023-06-26T02:02:23;21.00;99.90
5508;DHT22;2776;51.046;6.772;2023-06-26T02:04:50;21.00;99.90
5508;DHT22;2776;51.046;6.772;2023-06-26T02:07:17;21.00;99.90
5508;DHT22;2776;51.046;6.772;2023-06-26T02:09:44;20.90;99.90
5508;DHT22;2776;51.046;6.772;2023-06-26T02:12:11;21.00;99.90
5508;DHT22;2776;51.046;6.772;2023-06-26T02:14:37;21.00;99.90
5508;DHT22;2776;51.046;6.772;2023-06-26T02:17:06;21.00;99.90
5508;DHT22;2776;51.046;6.772;2023-06-26T02:19:34;21.00;99.90
5508;DHT22;2776;51.046;6.772;2023-06-26T02:22:00;21.00;99.90
5508;DHT22;2776;51.046;6.772;2023-06-26T02:24:27;21.00;99.90
5508;DHT22;2776;51.046;6.772;2023-06-26T02:26:55;21.00;99.90
5508;DHT22;2776;51.046;6.772;2023-06-26T02:29:22;21.00;99.90
5508;DHT22;2776;51.046;6.772;2023-06-26T02:31:49;21.00;99.90
5508;DHT22;2776;51.046;6.772;2023-06-26T02:34:17;20.90;99.90
5508;DHT22;2776;51.046;6.772;2023-06-26T02:36:43;20.90;99.90
5508;DHT22;2776;51.046;6.772;2023-06-26T02:39:10;20.80;99.90
5508;DHT22;2776;51.046;6.772;2023-06-26T02:41:37;20.80;99.90
5508;DHT22;2776;51.046;6.772;2023-06-26T02:44:04;20.70;99.90
5508;DHT22;2776;51.046;6.772;2023-06-26T02:46:30;20.70;99.90
5508;DHT22;2776;51.046;6.772;2023-06-26T02:48:57;20.60;99.90
5508;DHT22;2776;51.046;6.772;2023-06-26T02:51:25;20.60;99.90
5508;DHT22;2776;51.046;6.772;2023-06-26T02:53:52;20.60;99.90
5508;DHT22;2776;51.046;6.772;2023-06-26T02:56:18;20.60;99.90
5508;DHT22;2776;51.046;6.772;2023-06-26T02:58:45;20.60;99.90
5508;DHT22;2776;51.046;6.772;2023-06-26T03:01:12;20.50;99.90
5508;DHT22;2776;51.046;6.772;2023-06-26T03:03:40;20.40;99.90
5508;DHT22;2776;51.046;6.772;2023-06-26T03:06:07;20.40;99.90
5508;DHT22;2776;51.046;6.772;2023-06-26T03:08:37;20.40;99.90
5508;DHT22;2776;51.046;6.772;2023-06-26T03:11:04;20.40;99.90
5508;DHT22;2776;51.046;6.772;2023-06-26T03:13:31;20.50;99.90
5508;DHT22;2776;51.046;6.772;2023-06-26T03:15:58;20.50;99.90
5508;DHT22;2776;51.046;6.772;2023-06-26T03:18:25;20.50;99.90
5508;DHT22;2776;51.046;6.772;2023-06-26T03:20:52;20.60;99.90
5508;DHT22;2776;51.046;6.772;2023-06-26T03:23:20;20.60;99.90
5508;DHT22;2776;51.046;6.772;2023-06-26T03:25:48;20.60;99.90
5508;DHT22;2776;51.046;6.772;2023-06-26T03:28:15;20.60;99.90
5508;DHT22;2776;51.046;6.772;2023-06-26T03:30:42;20.60;99.90
5508;DHT22;2776;51.046;6.772;2023-06-26T03:33:09;20.60;99.90
5508;DHT22;2776;51.046;6.772;2023-06-26T03:35:36;20.60;99.90
5508;DHT22;2776;51.046;6.772;2023-06-26T03:38:03;20.60;99.90
5508;DHT22;2776;51.046;6.772;2023-06-26T03:40:31;20.60;99.90
5508;DHT22;2776;51.046;6.772;2023-06-26T03:42:59;20.70;99.90
5508;DHT22;2776;51.046;6.772;2023-06-26T03:45:25;20.70;99.90
5508;DHT22;2776;51.046;6.772;2023-06-26T03:47:52;20.80;99.90
5508;DHT22;2776;51.046;6.772;2023-06-26T03:50:19;20.80;99.90
5508;DHT22;2776;51.046;6.772;2023-06-26T03:52:46;21.00;99.90
5508;DHT22;2776;51.046;6.772;2023-06-26T03:55:13;21.10;99.90
5508;DHT22;2776;51.046;6.772;2023-06-26T03:57:39;21.20;99.90
5508;DHT22;2776;51.046;6.772;2023-06-26T04:00:09;21.30;99.90
5508;DHT22;2776;51.046;6.772;2023-06-26T04:02:37;21.30;99.90
5508;DHT22;2776;51.046;6.772;2023-06-26T04:05:04;21.40;99.90
5508;DHT22;2776;51.046;6.772;2023-06-26T04:07:31;21.50;99.90
5508;DHT22;2776;51.046;6.772;2023-06-26T04:09:58;21.40;99.90
5508;DHT22;2776;51.046;6.772;2023-06-26T04:12:25;21.50;99.90
5508;DHT22;2776;51.046;6.772;2023-06-26T04:14:51;21.50;99.90
5508;DHT22;2776;51.046;6.772;2023-06-26T04:17:20;21.60;99.90
5508;DHT22;2776;51.046;6.772;2023-06-26T04:19:47;21.70;99.90
5508;DHT22;2776;51.046;6.772;2023-06-26T04:22:14;21.70;99.90
5508;DHT22;2776;51.046;6.772;2023-06-26T04:24:40;21.80;99.90
5508;DHT22;2776;51.046;6.772;2023-06-26T04:27:07;21.90;99.90
5508;DHT22;2776;51.046;6.772;2023-06-26T04:29:34;22.00;99.90
5508;DHT22;2776;51.046;6.772;2023-06-26T04:32:01;22.00;99.90
5508;DHT22;2776;51.046;6.772;2023-06-26T04:34:30;22.00;99.90
5508;DHT22;2776;51.046;6.772;2023-06-26T04:36:58;22.20;99.90
5508;DHT22;2776;51.046;6.772;2023-06-26T04:39:24;22.30;99.90
5508;DHT22;2776;51.046;6.772;2023-06-26T04:41:51;22.40;99.90
5508;DHT22;2776;51.046;6.772;2023-06-26T04:44:18;22.40;99.90
5508;DHT22;2776;51.046;6.772;2023-06-26T04:46:45;22.40;99.90
5508;DHT22;2776;51.046;6.772;2023-06-26T04:49:12;22.30;99.90
5508;DHT22;2776;51.046;6.772;2023-06-26T04:51:40;22.40;99.90
5508;DHT22;2776;51.046;6.772;2023-06-26T04:54:06;22.50;99.90
5508;DHT22;2776;51.046;6.772;2023-06-26T04:56:34;22.70;99.90
5508;DHT22;2776;51.046;6.772;2023-06-26T04:59:01;22.80;99.90
5508;DHT22;2776;51.046;6.772;2023-06-26T05:01:28;22.90;99.90
5508;DHT22;2776;51.046;6.772;2023-06-26T05:03:55;22.90;99.90
5508;DHT22;2776;51.046;6.772;2023-06-26T05:06:22;23.00;99.90
5508;DHT22;2776;51.046;6.772;2023-06-26T05:08:50;23.00;99.90
5508;DHT22;2776;51.046;6.772;2023-06-26T05:11:17;22.90;99.90
5508;DHT22;2776;51.046;6.772;2023-06-26T05:13:44;22.90;99.90
5508;DHT22;2776;51.046;6.772;2023-06-26T05:16:11;22.90;99.90
5508;DHT22;2776;51.046;6.772;2023-06-26T05:18:37;22.90;99.90
5508;DHT22;2776;51.046;6.772;2023-06-26T05:21:05;22.90;99.90
5508;DHT22;2776;51.046;6.772;2023-06-26T05:23:32;22.90;99.90
5508;DHT22;2776;51.046;6.772;2023-06-26T05:26:01;22.90;99.90
5508;DHT22;2776;51.046;6.772;2023-06-26T05:28:29;22.90;99.90
5508;DHT22;2776;51.046;6.772;2023-06-26T05:30:58;23.10;99.90
5508;DHT22;2776;51.046;6.772;2023-06-26T05:33:27;23.00;99.90
5508;DHT22;2776;51.046;6.772;2023-06-26T05:35:54;23.10;99.90
5508;DHT22;2776;51.046;6.772;2023-06-26T05:38:22;23.10;99.90
5508;DHT22;2776;51.046;6.772;2023-06-26T05:40:49;23.20;99.90
5508;DHT22;2776;51.046;6.772;2023-06-26T05:43:18;23.40;99.90
5508;DHT22;2776;51.046;6.772;2023-06-26T05:45:47;23.20;99.90
5508;DHT22;2776;51.046;6.772;2023-06-26T05:48:14;23.20;99.90
5508;DHT22;2776;51.046;6.772;2023-06-26T05:50:42;22.90;99.90
5508;DHT22;2776;51.046;6.772;2023-06-26T05:53:10;23.20;99.90
5508;DHT22;2776;51.046;6.772;2023-06-26T05:55:37;23.80;99.90
5508;DHT22;2776;51.046;6.772;2023-06-26T05:58:05;24.40;99.90
5508;DHT22;2776;51.046;6.772;2023-06-26T06:00:34;24.70;99.90
5508;DHT22;2776;51.046;6.772;2023-06-26T06:03:01;24.80;99.90
5508;DHT22;2776;51.046;6.772;2023-06-26T06:05:28;24.60;99.90
5508;DHT22;2776;51.046;6.772;2023-06-26T06:07:54;24.50;99.90
5508;DHT22;2776;51.046;6.772;2023-06-26T06:10:21;24.50;99.90
5508;DHT22;2776;51.046;6.772;2023-06-26T06:12:48;24.50;99.90
5508;DHT22;2776;51.046;6.772;2023-06-26T06:15:15;24.50;99.90
5508;DHT22;2776;51.046;6.772;2023-06-26T06:17:43;24.50;99.90
5508;DHT22;2776;51.046;6.772;2023-06-26T06:20:10;24.20;99.90
5508;DHT22;2776;51.046;6.772;2023-06-26T06:22:37;24.10;99.90
5508;DHT22;2776;51.046;6.772;2023-06-26T06:25:04;24.00;99.90
5508;DHT22;2776;51.046;6.772;2023-06-26T06:27:31;23.90;99.90
5508;DHT22;2776;51.046;6.772;2023-06-26T06:29:58;23.70;99.90
5508;DHT22;2776;51.046;6.772;2023-06-26T06:32:24;23.60;99.90
5508;DHT22;2776;51.046;6.772;2023-06-26T06:34:54;23.40;99.90
5508;DHT22;2776;51.046;6.772;2023-06-26T06:37:20;23.30;99.90
5508;DHT22;2776;51.046;6.772;2023-06-26T06:39:47;23.00;99.90
5508;DHT22;2776;51.046;6.772;2023-06-26T06:42:14;22.90;99.90
5508;DHT22;2776;51.046;6.772;2023-06-26T06:44:41;23.00;99.90
5508;DHT22;2776;51.046;6.772;2023-06-26T06:47:07;23.20;99.90
5508;DHT22;2776;51.046;6.772;2023-06-26T06:49:34;23.40;99.90
5508;DHT22;2776;51.046;6.772;2023-06-26T06:52:02;23.70;99.90
5508;DHT22;2776;51.046;6.772;2023-06-26T06:54:29;24.00;99.90
5508;DHT22;2776;51.046;6.772;2023-06-26T06:56:56;24.40;99.90
5508;DHT22;2776;51.046;6.772;2023-06-26T06:59:23;24.50;99.90
5508;DHT22;2776;51.046;6.772;2023-06-26T07:01:49;24.60;99.90
5508;DHT22;2776;51.046;6.772;2023-06-26T07:04:16;24.50;99.90
5508;DHT22;2776;51.046;6.772;2023-06-26T07:06:43;24.40;99.90
5508;DHT22;2776;51.046;6.772;2023-06-26T07:09:11;24.10;99.90
5508;DHT22;2776;51.046;6.772;2023-06-26T07:11:38;24.00;99.90
5508;DHT22;2776;51.046;6.772;2023-06-26T07:14:04;23.60;99.90
5508;DHT22;2776;51.046;6.772;2023-06-26T07:16:31;23.40;99.90
5508;DHT22;2776;51.046;6.772;2023-06-26T07:18:58;23.20;99.90
5508;DHT22;2776;51.046;6.772;2023-06-26T07:21:25;23.00;99.90
5508;DHT22;2776;51.046;6.772;2023-06-26T07:23:52;23.00;99.90
5508;DHT22;2776;51.046;6.772;2023-06-26T07:26:20;23.00;99.90
5508;DHT22;2776;51.046;6.772;2023-06-26T07:28:47;23.30;99.90
5508;DHT22;2776;51.046;6.772;2023-06-26T07:31:15;24.20;99.90
5508;DHT22;2776;51.046;6.772;2023-06-26T07:33:42;25.20;99.90
5508;DHT22;2776;51.046;6.772;2023-06-26T07:36:09;26.00;99.90
5508;DHT22;2776;51.046;6.772;2023-06-26T07:38:36;26.20;99.90
5508;DHT22;2776;51.046;6.772;2023-06-26T07:41:02;26.20;99.90
5508;DHT22;2776;51.046;6.772;2023-06-26T07:43:30;26.10;99.90
5508;DHT22;2776;51.046;6.772;2023-06-26T07:45:57;26.30;99.90
5508;DHT22;2776;51.046;6.772;2023-06-26T07:48:25;26.40;99.90
5508;DHT22;2776;51.046;6.772;2023-06-26T07:50:51;26.40;99.90
5508;DHT22;2776;51.046;6.772;2023-06-26T07:53:19;26.50;99.90
5508;DHT22;2776;51.046;6.772;2023-06-26T07:55:45;26.60;99.90
5508;DHT22;2776;51.046;6.772;2023-06-26T07:58:13;26.60;99.90
5508;DHT22;2776;51.046;6.772;2023-06-26T08:00:41;26.50;99.90
5508;DHT22;2776;51.046;6.772;2023-06-26T08:03:08;26.30;99.90
5508;DHT22;2776;51.046;6.772;2023-06-26T08:05:35;26.00;99.90
5508;DHT22;2776;51.046;6.772;2023-06-26T08:08:02;25.90;99.90
5508;DHT22;2776;51.046;6.772;2023-06-26T08:10:28;25.90;99.90
5508;DHT22;2776;51.046;6.772;2023-06-26T08:12:55;26.00;99.90
5508;DHT22;2776;51.046;6.772;2023-06-26T08:15:22;25.80;99.90
5508;DHT22;2776;51.046;6.772;2023-06-26T08:17:50;25.80;99.90
5508;DHT22;2776;51.046;6.772;2023-06-26T08:20:17;25.90;99.90
5508;DHT22;2776;51.046;6.772;2023-06-26T08:22:45;26.00;99.90
5508;DHT22;2776;51.046;6.772;2023-06-26T08:25:13;26.00;99.90
5508;DHT22;2776;51.046;6.772;2023-06-26T08:27:40;25.90;99.90
5508;DHT22;2776;51.046;6.772;2023-06-26T08:30:07;26.00;99.90
5508;DHT22;2776;51.046;6.772;2023-06-26T08:32:34;26.10;99.90
5508;DHT22;2776;51.046;6.772;2023-06-26T08:35:02;26.50;99.90
5508;DHT22;2776;51.046;6.772;2023-06-26T08:37:29;26.70;99.90
5508;DHT22;2776;51.046;6.772;2023-06-26T08:39:58;26.60;99.90
5508;DHT22;2776;51.046;6.772;2023-06-26T08:42:25;26.50;99.90
5508;DHT22;2776;51.046;6.772;2023-06-26T08:44:51;26.50;99.90
5508;DHT22;2776;51.046;6.772;2023-06-26T08:47:19;26.40;99.90
5508;DHT22;2776;51.046;6.772;2023-06-26T08:49:49;26.20;99.90
5508;DHT22;2776;51.046;6.772;2023-06-26T08:52:23;26.10;99.90
5508;DHT22;2776;51.046;6.772;2023-06-26T08:54:54;26.00;99.90
5508;DHT22;2776;51.046;6.772;2023-06-26T08:57:23;25.80;99.90
5508;DHT22;2776;51.046;6.772;2023-06-26T08:59:50;25.70;99.90
5508;DHT22;2776;51.046;6.772;2023-06-26T09:02:18;25.60;99.90
5508;DHT22;2776;51.046;6.772;2023-06-26T09:04:47;25.40;99.90
5508;DHT22;2776;51.046;6.772;2023-06-26T09:07:14;25.40;99.90
5508;DHT22;2776;51.046;6.772;2023-06-26T09:09:42;25.50;99.90
5508;DHT22;2776;51.046;6.772;2023-06-26T09:12:09;25.70;99.90
5508;DHT22;2776;51.046;6.772;2023-06-26T09:14:37;25.80;99.90
5508;DHT22;2776;51.046;6.772;2023-06-26T09:17:04;25.60;99.90
5508;DHT22;2776;51.046;6.772;2023-06-26T09:19:30;25.70;99.90
5508;DHT22;2776;51.046;6.772;2023-06-26T09:21:57;25.70;99.90
5508;DHT22;2776;51.046;6.772;2023-06-26T09:24:25;25.80;99.90
5508;DHT22;2776;51.046;6.772;2023-06-26T09:26:53;25.90;99.90
5508;DHT22;2776;51.046;6.772;2023-06-26T09:29:20;25.70;99.90
5508;DHT22;2776;51.046;6.772;2023-06-26T09:31:47;25.80;99.90
5508;DHT22;2776;51.046;6.772;2023-06-26T09:34:14;25.70;99.90
5508;DHT22;2776;51.046;6.772;2023-06-26T09:36:41;25.80;99.90
5508;DHT22;2776;51.046;6.772;2023-06-26T09:39:12;25.80;99.90
5508;DHT22;2776;51.046;6.772;2023-06-26T09:41:41;25.70;99.90
5508;DHT22;2776;51.046;6.772;2023-06-26T09:44:11;25.60;99.90
5508;DHT22;2776;51.046;6.772;2023-06-26T09:46:39;25.80;99.90
5508;DHT22;2776;51.046;6.772;2023-06-26T09:49:06;26.00;99.90
5508;DHT22;2776;51.046;6.772;2023-06-26T09:51:35;26.10;99.90
5508;DHT22;2776;51.046;6.772;2023-06-26T09:54:03;26.00;99.90
5508;DHT22;2776;51.046;6.772;2023-06-26T09:56:30;26.00;99.90
5508;DHT22;2776;51.046;6.772;2023-06-26T09:58:59;25.90;99.90
5508;DHT22;2776;51.046;6.772;2023-06-26T10:01:29;25.90;99.90
5508;DHT22;2776;51.046;6.772;2023-06-26T10:03:56;26.00;99.90
5508;DHT22;2776;51.046;6.772;2023-06-26T10:06:27;26.00;99.90
5508;DHT22;2776;51.046;6.772;2023-06-26T10:08:55;25.90;99.90
5508;DHT22;2776;51.046;6.772;2023-06-26T10:11:23;25.90;99.90
5508;DHT22;2776;51.046;6.772;2023-06-26T10:13:54;26.00;99.90
5508;DHT22;2776;51.046;6.772;2023-06-26T10:16:26;25.90;99.90
5508;DHT22;2776;51.046;6.772;2023-06-26T10:18:58;25.90;99.90
5508;DHT22;2776;51.046;6.772;2023-06-26T10:21:29;25.80;99.90
5508;DHT22;2776;51.046;6.772;2023-06-26T10:23:57;25.90;99.90
5508;DHT22;2776;51.046;6.772;2023-06-26T10:26:24;25.90;99.90
5508;DHT22;2776;51.046;6.772;2023-06-26T10:28:54;25.90;99.90
5508;DHT22;2776;51.046;6.772;2023-06-26T10:31:26;25.90;99.90
5508;DHT22;2776;51.046;6.772;2023-06-26T10:33:55;26.10;99.90
5508;DHT22;2776;51.046;6.772;2023-06-26T15:25:13;25.80;50.50
5508;DHT22;2776;51.046;6.772;2023-06-26T15:27:40;25.70;48.40
5508;DHT22;2776;51.046;6.772;2023-06-26T15:30:07;25.70;50.30
5508;DHT22;2776;51.046;6.772;2023-06-26T15:32:34;25.60;49.10
5508;DHT22;2776;51.046;6.772;2023-06-26T15:35:01;25.60;49.00
5508;DHT22;2776;51.046;6.772;2023-06-26T15:37:28;25.50;48.40
5508;DHT22;2776;51.046;6.772;2023-06-26T15:39:55;25.40;49.30
5508;DHT22;2776;51.046;6.772;2023-06-26T15:42:26;25.40;49.60
5508;DHT22;2776;51.046;6.772;2023-06-26T15:44:53;25.40;50.40
5508;DHT22;2776;51.046;6.772;2023-06-26T15:47:20;25.30;50.20
5508;DHT22;2776;51.046;6.772;2023-06-26T15:49:47;25.30;50.80
5508;DHT22;2776;51.046;6.772;2023-06-26T15:52:14;25.20;50.00
5508;DHT22;2776;51.046;6.772;2023-06-26T15:54:40;25.20;51.80
5508;DHT22;2776;51.046;6.772;2023-06-26T15:57:07;25.20;49.00
5508;DHT22;2776;51.046;6.772;2023-06-26T15:59:35;25.00;47.60
5508;DHT22;2776;51.046;6.772;2023-06-26T16:02:03;24.90;48.80
5508;DHT22;2776;51.046;6.772;2023-06-26T16:04:30;24.90;48.80
5508;DHT22;2776;51.046;6.772;2023-06-26T16:06:58;24.90;48.60
5508;DHT22;2776;51.046;6.772;2023-06-26T16:09:24;24.90;49.00
5508;DHT22;2776;51.046;6.772;2023-06-26T16:11:51;24.90;49.70
5508;DHT22;2776;51.046;6.772;2023-06-26T16:14:18;24.80;48.90
5508;DHT22;2776;51.046;6.772;2023-06-26T16:16:46;24.60;48.80
5508;DHT22;2776;51.046;6.772;2023-06-26T16:19:13;24.60;49.60
5508;DHT22;2776;51.046;6.772;2023-06-26T16:21:40;24.60;49.20
5508;DHT22;2776;51.046;6.772;2023-06-26T16:24:06;24.50;49.70
5508;DHT22;2776;51.046;6.772;2023-06-26T16:26:33;24.50;51.30
5508;DHT22;2776;51.046;6.772;2023-06-26T16:29:00;24.50;49.00
5508;DHT22;2776;51.046;6.772;2023-06-26T16:31:27;24.40;48.20
5508;DHT22;2776;51.046;6.772;2023-06-26T16:33:55;24.20;49.10
5508;DHT22;2776;51.046;6.772;2023-06-26T16:36:22;24.10;51.10
5508;DHT22;2776;51.046;6.772;2023-06-26T16:38:48;24.20;51.90
5508;DHT22;2776;51.046;6.772;2023-06-26T16:41:15;24.20;48.60
5508;DHT22;2776;51.046;6.772;2023-06-26T16:43:42;24.10;49.60
5508;DHT22;2776;51.046;6.772;2023-06-26T16:46:09;24.10;50.30
5508;DHT22;2776;51.046;6.772;2023-06-26T16:48:35;24.10;49.70
5508;DHT22;2776;51.046;6.772;2023-06-26T16:51:04;24.10;50.90
5508;DHT22;2776;51.046;6.772;2023-06-26T16:53:31;24.10;50.90
5508;DHT22;2776;51.046;6.772;2023-06-26T16:55:58;24.10;51.60
5508;DHT22;2776;51.046;6.772;2023-06-26T16:58:25;24.10;50.40
5508;DHT22;2776;51.046;6.772;2023-06-26T17:00:52;24.00;51.30
5508;DHT22;2776;51.046;6.772;2023-06-26T17:03:18;23.90;52.00
5508;DHT22;2776;51.046;6.772;2023-06-26T17:05:47;23.90;52.70
5508;DHT22;2776;51.046;6.772;2023-06-26T17:08:15;23.80;52.60
5508;DHT22;2776;51.046;6.772;2023-06-26T17:10:42;23.80;53.60
5508;DHT22;2776;51.046;6.772;2023-06-26T17:13:08;23.80;54.60
5508;DHT22;2776;51.046;6.772;2023-06-26T17:15:35;23.80;54.80
5508;DHT22;2776;51.046;6.772;2023-06-26T17:18:02;23.80;55.10
5508;DHT22;2776;51.046;6.772;2023-06-26T17:20:29;23.80;54.60
5508;DHT22;2776;51.046;6.772;2023-06-26T17:22:56;23.80;54.30
5508;DHT22;2776;51.046;6.772;2023-06-26T17:25:25;23.70;55.50
5508;DHT22;2776;51.046;6.772;2023-06-26T17:27:51;23.60;55.40
5508;DHT22;2776;51.046;6.772;2023-06-26T17:30:18;23.50;55.70
5508;DHT22;2776;51.046;6.772;2023-06-26T17:32:45;23.40;55.80
5508;DHT22;2776;51.046;6.772;2023-06-26T17:35:12;23.40;56.00
5508;DHT22;2776;51.046;6.772;2023-06-26T17:37:38;23.30;55.70
5508;DHT22;2776;51.046;6.772;2023-06-26T17:40:06;23.20;56.20
5508;DHT22;2776;51.046;6.772;2023-06-26T17:42:35;23.00;56.60
5508;DHT22;2776;51.046;6.772;2023-06-26T17:45:08;22.90;57.40
5508;DHT22;2776;51.046;6.772;2023-06-26T17:47:35;22.90;58.10
5508;DHT22;2776;51.046;6.772;2023-06-26T17:50:02;22.90;58.40
5508;DHT22;2776;51.046;6.772;2023-06-26T17:52:29;22.90;59.10
5508;DHT22;2776;51.046;6.772;2023-06-26T17:54:56;22.90;59.10
5508;DHT22;2776;51.046;6.772;2023-06-26T17:57:23;22.90;58.60
5508;DHT22;2776;51.046;6.772;2023-06-26T17:59:51;22.90;59.40
5508;DHT22;2776;51.046;6.772;2023-06-26T18:02:19;22.90;59.10
5508;DHT22;2776;51.046;6.772;2023-06-26T18:04:46;23.00;58.90
5508;DHT22;2776;51.046;6.772;2023-06-26T18:07:13;22.80;58.60
5508;DHT22;2776;51.046;6.772;2023-06-26T18:09:41;22.80;59.70
5508;DHT22;2776;51.046;6.772;2023-06-26T18:12:08;22.70;59.40
5508;DHT22;2776;51.046;6.772;2023-06-26T18:14:35;22.60;59.40
5508;DHT22;2776;51.046;6.772;2023-06-26T18:17:03;22.60;60.20
5508;DHT22;2776;51.046;6.772;2023-06-26T18:19:30;22.50;60.70
5508;DHT22;2776;51.046;6.772;2023-06-26T18:21:57;22.40;61.10
5508;DHT22;2776;51.046;6.772;2023-06-26T18:24:23;22.40;62.20
5508;DHT22;2776;51.046;6.772;2023-06-26T18:26:50;22.40;61.80
5508;DHT22;2776;51.046;6.772;2023-06-26T18:29:17;22.40;62.60
5508;DHT22;2776;51.046;6.772;2023-06-26T18:31:44;22.30;63.90
5508;DHT22;2776;51.046;6.772;2023-06-26T18:34:12;22.40;63.70
5508;DHT22;2776;51.046;6.772;2023-06-26T18:36:39;22.30;63.90
5508;DHT22;2776;51.046;6.772;2023-06-26T18:39:05;22.30;63.80
5508;DHT22;2776;51.046;6.772;2023-06-26T18:41:32;22.30;63.10
5508;DHT22;2776;51.046;6.772;2023-06-26T18:43:59;22.30;64.00
5508;DHT22;2776;51.046;6.772;2023-06-26T18:46:26;22.30;64.60
5508;DHT22;2776;51.046;6.772;2023-06-26T18:48:59;22.20;64.20
5508;DHT22;2776;51.046;6.772;2023-06-26T18:51:29;22.10;65.80
5508;DHT22;2776;51.046;6.772;2023-06-26T18:53:56;22.10;68.40
5508;DHT22;2776;51.046;6.772;2023-06-26T18:56:26;22.00;65.20
5508;DHT22;2776;51.046;6.772;2023-06-26T18:58:53;22.00;67.90
5508;DHT22;2776;51.046;6.772;2023-06-26T19:01:19;22.00;69.30
5508;DHT22;2776;51.046;6.772;2023-06-26T19:03:47;22.00;70.00
5508;DHT22;2776;51.046;6.772;2023-06-26T19:06:14;21.90;69.10
5508;DHT22;2776;51.046;6.772;2023-06-26T19:08:42;21.80;70.20
5508;DHT22;2776;51.046;6.772;2023-06-26T19:11:09;21.70;71.00
5508;DHT22;2776;51.046;6.772;2023-06-26T19:13:36;21.60;70.50
5508;DHT22;2776;51.046;6.772;2023-06-26T19:16:03;21.60;72.60
5508;DHT22;2776;51.046;6.772;2023-06-26T19:18:30;21.50;72.90
5508;DHT22;2776;51.046;6.772;2023-06-26T19:20:57;21.40;72.30
5508;DHT22;2776;51.046;6.772;2023-06-26T19:23:24;21.30;74.00
5508;DHT22;2776;51.046;6.772;2023-06-26T19:25:52;21.30;75.10
5508;DHT22;2776;51.046;6.772;2023-06-26T19:28:19;21.30;75.20
5508;DHT22;2776;51.046;6.772;2023-06-26T19:30:47;21.20;77.00
5508;DHT22;2776;51.046;6.772;2023-06-26T19:33:14;21.20;78.50
5508;DHT22;2776;51.046;6.772;2023-06-26T19:35:41;21.10;80.70
5508;DHT22;2776;51.046;6.772;2023-06-26T19:38:08;21.10;80.10
5508;DHT22;2776;51.046;6.772;2023-06-26T19:40:36;21.00;83.40
5508;DHT22;2776;51.046;6.772;2023-06-26T19:43:05;20.90;90.20
5508;DHT22;2776;51.046;6.772;2023-06-26T19:45:31;20.80;91.30
5508;DHT22;2776;51.046;6.772;2023-06-26T19:47:58;20.60;92.80
5508;DHT22;2776;51.046;6.772;2023-06-26T19:50:25;20.50;94.20
5508;DHT22;2776;51.046;6.772;2023-06-26T19:52:52;20.40;95.20
5508;DHT22;2776;51.046;6.772;2023-06-26T19:55:18;20.40;97.40
5508;DHT22;2776;51.046;6.772;2023-06-26T19:57:46;20.30;98.40
5508;DHT22;2776;51.046;6.772;2023-06-26T20:00:15;20.20;99.70
5508;DHT22;2776;51.046;6.772;2023-06-26T20:02:44;20.00;99.90
5508;DHT22;2776;51.046;6.772;2023-06-26T20:05:11;19.90;99.90
5508;DHT22;2776;51.046;6.772;2023-06-26T20:07:38;19.80;99.90
5508;DHT22;2776;51.046;6.772;2023-06-26T20:10:05;19.80;99.90
5508;DHT22;2776;51.046;6.772;2023-06-26T20:12:32;19.70;99.90
5508;DHT22;2776;51.046;6.772;2023-06-26T20:14:59;19.70;99.90
5508;DHT22;2776;51.046;6.772;2023-06-26T20:17:27;19.60;99.90
5508;DHT22;2776;51.046;6.772;2023-06-26T20:19:54;19.60;99.90
5508;DHT22;2776;51.046;6.772;2023-06-26T20:22:21;19.50;99.90
5508;DHT22;2776;51.046;6.772;2023-06-26T20:24:47;19.40;99.90
5508;DHT22;2776;51.046;6.772;2023-06-26T20:27:14;19.40;99.90
5508;DHT22;2776;51.046;6.772;2023-06-26T20:29:41;19.30;99.90
5508;DHT22;2776;51.046;6.772;2023-06-26T20:32:08;19.30;99.90
5508;DHT22;2776;51.046;6.772;2023-06-26T20:34:36;19.20;99.90
5508;DHT22;2776;51.046;6.772;2023-06-26T20:37:03;19.20;99.90
5508;DHT22;2776;51.046;6.772;2023-06-26T20:39:31;19.10;99.90
5508;DHT22;2776;51.046;6.772;2023-06-26T20:41:58;19.10;99.90
5508;DHT22;2776;51.046;6.772;2023-06-26T20:44:25;19.10;99.90
5508;DHT22;2776;51.046;6.772;2023-06-26T20:46:53;19.00;99.90
5508;DHT22;2776;51.046;6.772;2023-06-26T20:49:24;19.00;99.90
5508;DHT22;2776;51.046;6.772;2023-06-26T20:51:55;18.90;99.90